Impacts TAF Board INFO
FOR SITUATIONAL AWARENESS. NOT TO BE USED FOR FLIGHT PLANNING PURPOSES.
IDs:

KCLE - Cleveland/Hopkins In, OH, US

Issued at 1935 UTC 16 Aug 2018
Updated at 2017 UTC 16 Aug 2018
Potential Impact None Slight Moderate High
Time<<17/09Z 17/10Z 17/11Z 17/12Z 17/13Z 17/14Z 17/15Z 17/16Z 17/17Z 17/18Z 17/19Z 17/20Z 17/21Z>>
Type PRVL PRVL PRVL PRVL PRVL PRVL PRVL PRVL PRVL PRVL PRVL PRVL PRVL
VIS 5 5 5 5 5 5 >6 >6 >6 >6 >6 >6 >6
CIG 9 9 9 9 9 9 15 15 15 15 15 15 15
Cover OVC OVC OVC OVC OVC OVC OVC OVC OVC OVC OVC OVC OVC
FltCat IFR IFR IFR IFR IFR IFR MVFR MVFR MVFR MVFR MVFR MVFR MVFR
WX BR BR BR BR BR BR -- -- -- -- -- -- --
WDir 210 210 210 210 210 210 220 220 220 220 220 220 220
WSpd 10 10 10 10 10 10 10 10 10 10 10 10 10
WGst -- -- -- -- -- -- -- -- -- -- -- -- --

Raw TAF
KCLE 161935Z 1620/1724 19011G17KT P6SM VCSH OVC040
  TEMPO 1620/1624 2SM -RA BR OVC020
  FM170000 20012KT P6SM VCSH OVC020
  FM170900 21010KT 5SM BR OVC009
  FM171500 22010KT P6SM OVC015


METAR Board
Radar Display
Forecast Discussion

FOR SITUATIONAL AWARENESS. NOT TO BE USED FOR FLIGHT PLANNING PURPOSES.